Denver, Colorado
Traffic Map
Current Weather Conditions
Denver, Colorado
Broken Clouds
Broken Clouds

Feels Like: 0°
Wind Chill: Ceiling: 22000
Heat Index: Visibility: 10mi
Dew Point: Wind: 6mph
Humidity: 87% Direction: 100° (E)
Pressure: 29.98in Gusts: 0mph
Raw Report DataKBKF 240855Z 10005KT 10SM FEW060 SCT100 BKN220 03/01 A2998 RMK SLP109 53014
Traffic Incident Summary
Active as of:
Severity:
Category:
InformationThere was an issue retrieving the traffic information for this location. Please try a different location or try again shortly.
Advertisements
At Last! Intellicast now available for iPhone and Android